Time;durP1;ratioP1;P1;durP2;ratioP2;P2;SDS_P1;SDS_P2;PMS_P1;PMS_P2;Temp;Humidity;BMP_temperature;BMP_pressure;BME280_temperature;BME280_humidity;BME280_pressure;Samples;Min_cycle;Max_cycle;Signal;HPM_P1;HPM_P2
2022/04/06 00:01:17;;;;;;;;;;;9.50;99.90;;;;;;5094015;28;19970;-68
2022/04/06 00:03:43;;;;;;;;;;;9.50;99.90;;;;;;5092810;28;20396;-69
2022/04/06 00:06:09;;;;;;;;;;;9.50;99.90;;;;;;5093988;28;19916;-69
2022/04/06 00:08:34;;;;;;;;;;;9.40;99.90;;;;;;5092401;28;20460;-70
2022/04/06 00:11:00;;;;;;;;;;;9.50;99.90;;;;;;5093839;28;20391;-69
2022/04/06 00:13:25;;;;;;;;;;;9.50;99.90;;;;;;5092565;28;20009;-69
2022/04/06 00:15:51;;;;;;;;;;;9.50;99.90;;;;;;5093613;28;19920;-69
2022/04/06 00:18:16;;;;;;;;;;;9.40;99.90;;;;;;5075428;28;19941;-72
2022/04/06 00:20:42;;;;;;;;;;;9.40;99.90;;;;;;5092099;28;20000;-69
2022/04/06 00:23:08;;;;;;;;;;;9.40;99.90;;;;;;5092363;28;19916;-68
2022/04/06 00:25:34;;;;;;;;;;;9.40;99.90;;;;;;5093689;28;20008;-69
2022/04/06 00:27:59;;;;;;;;;;;9.40;99.90;;;;;;5093615;28;19958;-69
2022/04/06 00:30:24;;;;;;;;;;;9.40;99.90;;;;;;5093474;28;20402;-69
2022/04/06 00:32:50;;;;;;;;;;;9.40;99.90;;;;;;5093696;28;19920;-69
2022/04/06 00:35:34;;;;;;;;;;;9.40;99.90;;;;;;5093348;28;19920;-70
2022/04/06 00:38:02;;;;;;;;;;;9.40;99.90;;;;;;5092235;28;20019;-69
2022/04/06 00:40:28;;;;;;;;;;;9.40;99.90;;;;;;5092995;28;20414;-69
2022/04/06 00:42:54;;;;;;;;;;;9.40;99.90;;;;;;5093332;28;19945;-68
2022/04/06 00:45:23;;;;;;;;;;;9.40;99.90;;;;;;5093086;28;19941;-69
2022/04/06 00:47:49;;;;;;;;;;;9.40;99.90;;;;;;5093346;28;20147;-68
2022/04/06 00:50:15;;;;;;;;;;;9.40;99.90;;;;;;5092721;28;20006;-68
2022/04/06 00:52:41;;;;;;;;;;;9.40;99.90;;;;;;5091732;28;19942;-69
2022/04/06 00:55:07;;;;;;;;;;;9.50;99.90;;;;;;5092820;28;19920;-68
2022/04/06 00:57:32;;;;;;;;;;;9.50;99.90;;;;;;5093206;28;19927;-68
2022/04/06 00:59:59;;;;;;;;;;;9.40;99.90;;;;;;5092750;28;19967;-69
2022/04/06 01:02:25;;;;;;;;;;;9.50;99.90;;;;;;5092842;28;19920;-69
2022/04/06 01:04:50;;;;;;;;;;;9.40;99.90;;;;;;5092864;28;20315;-69
2022/04/06 01:07:17;;;;;;;;;;;9.40;99.90;;;;;;5092754;28;19916;-69
2022/04/06 01:09:42;;;;;;;;;;;9.40;99.90;;;;;;5092446;28;19961;-68
2022/04/06 01:12:08;;;;;;;;;;;9.40;99.90;;;;;;5092893;28;19916;-69
2022/04/06 01:14:34;;;;;;;;;;;9.40;99.90;;;;;;5092843;28;20045;-68
2022/04/06 01:17:03;;;;;;;;;;;9.40;99.90;;;;;;5092522;28;19927;-68
2022/04/06 01:19:29;;;;;;;;;;;9.40;99.90;;;;;;5090837;28;20371;-69
2022/04/06 01:21:55;;;;;;;;;;;9.40;99.90;;;;;;5092453;28;19920;-69
2022/04/06 01:24:21;;;;;;;;;;;9.40;99.90;;;;;;5091584;28;19916;-70
2022/04/06 01:26:46;;;;;;;;;;;9.40;99.90;;;;;;5092594;28;19916;-69
2022/04/06 01:29:12;;;;;;;;;;;9.40;99.90;;;;;;5092312;28;19927;-68
2022/04/06 01:31:37;;;;;;;;;;;9.40;99.90;;;;;;5091093;28;19916;-69
2022/04/06 01:34:03;;;;;;;;;;;9.40;99.90;;;;;;5092433;28;19916;-69
2022/04/06 01:36:29;;;;;;;;;;;9.40;99.90;;;;;;5092170;28;19931;-68
2022/04/06 01:38:54;;;;;;;;;;;9.40;99.90;;;;;;5092078;28;19962;-70
2022/04/06 01:41:20;;;;;;;;;;;9.40;99.90;;;;;;5092758;28;19924;-69
2022/04/06 01:43:45;;;;;;;;;;;9.40;99.90;;;;;;5092919;28;19915;-69
2022/04/06 01:46:11;;;;;;;;;;;9.40;99.90;;;;;;5092263;28;19916;-69
2022/04/06 01:52:11;;;;;;;;;;;9.40;99.90;;;;;;5091836;28;19939;-68
2022/04/06 01:54:06;;;;;;;;;;;9.40;99.90;;;;;;5092036;28;19920;-69
2022/04/06 01:56:31;;;;;;;;;;;9.40;99.90;;;;;;5090654;28;20006;-68
2022/04/06 01:58:57;;;;;;;;;;;9.40;99.90;;;;;;5091666;28;19985;-68
2022/04/06 02:01:22;;;;;;;;;;;9.40;99.90;;;;;;5091747;28;19916;-68
2022/04/06 02:03:48;;;;;;;;;;;9.40;99.90;;;;;;5091831;28;19916;-68
2022/04/06 02:06:13;;;;;;;;;;;9.40;99.90;;;;;;5091827;28;19916;-70
2022/04/06 02:08:39;;;;;;;;;;;9.40;99.90;;;;;;5091624;28;20306;-69
2022/04/06 02:11:04;;;;;;;;;;;9.40;99.90;;;;;;5091696;28;19920;-68
2022/04/06 02:13:30;;;;;;;;;;;9.40;99.90;;;;;;5090460;28;19963;-69
2022/04/06 02:15:55;;;;;;;;;;;9.40;99.90;;;;;;5091462;28;19924;-69
2022/04/06 02:18:21;;;;;;;;;;;9.40;99.90;;;;;;5091697;28;19923;-69
2022/04/06 02:20:47;;;;;;;;;;;9.40;99.90;;;;;;5091463;28;19916;-69
2022/04/06 02:23:12;;;;;;;;;;;9.40;99.90;;;;;;5091740;28;19968;-69
2022/04/06 02:25:38;;;;;;;;;;;9.40;99.90;;;;;;5090883;28;19916;-70
2022/04/06 02:28:03;;;;;;;;;;;9.40;99.90;;;;;;5091258;28;19969;-69
2022/04/06 02:30:29;;;;;;;;;;;9.40;99.90;;;;;;5091326;28;19916;-69
2022/04/06 02:32:54;;;;;;;;;;;9.40;99.90;;;;;;5091522;28;19920;-69
2022/04/06 02:35:20;;;;;;;;;;;9.40;99.90;;;;;;5091457;28;19934;-68
2022/04/06 02:37:45;;;;;;;;;;;9.40;99.90;;;;;;5094468;28;19973;-69
2022/04/06 02:40:12;;;;;;;;;;;9.40;99.90;;;;;;5095377;28;19985;-68
2022/04/06 02:42:38;;;;;;;;;;;9.40;99.90;;;;;;5094091;28;20028;-68
2022/04/06 02:45:03;;;;;;;;;;;9.30;99.90;;;;;;5094569;28;19920;-69
2022/04/06 02:47:29;;;;;;;;;;;9.30;99.90;;;;;;5095363;28;19920;-69
2022/04/06 02:49:54;;;;;;;;;;;9.30;99.90;;;;;;5095117;28;20367;-69
2022/04/06 02:52:20;;;;;;;;;;;9.30;99.90;;;;;;5094248;28;19919;-69
2022/04/06 02:54:45;;;;;;;;;;;9.30;99.90;;;;;;5094112;28;19968;-68
2022/04/06 02:57:11;;;;;;;;;;;9.30;99.90;;;;;;5095240;28;19930;-68
2022/04/06 02:59:39;;;;;;;;;;;9.40;99.90;;;;;;5094819;28;19923;-70
2022/04/06 03:02:04;;;;;;;;;;;9.40;99.90;;;;;;5095022;28;19920;-70
2022/04/06 03:04:30;;;;;;;;;;;9.40;99.90;;;;;;5095209;28;19928;-70
2022/04/06 03:06:55;;;;;;;;;;;9.40;99.90;;;;;;5095255;28;20359;-68
2022/04/06 03:09:21;;;;;;;;;;;9.40;99.90;;;;;;5095409;28;19916;-71
2022/04/06 03:11:46;;;;;;;;;;;9.40;99.90;;;;;;5077829;28;19923;-70
2022/04/06 03:14:12;;;;;;;;;;;9.40;99.90;;;;;;5095698;28;19919;-69
2022/04/06 03:16:37;;;;;;;;;;;9.30;99.90;;;;;;5094650;28;20010;-69
2022/04/06 03:19:03;;;;;;;;;;;9.40;99.90;;;;;;5094321;28;20430;-69
2022/04/06 03:21:28;;;;;;;;;;;9.30;99.90;;;;;;5095031;28;19969;-69
2022/04/06 03:23:53;;;;;;;;;;;9.40;99.90;;;;;;5093235;28;20367;-69
2022/04/06 03:26:19;;;;;;;;;;;9.40;99.90;;;;;;5095020;28;19916;-68
2022/04/06 03:28:44;;;;;;;;;;;9.40;99.90;;;;;;5094628;28;19919;-69
2022/04/06 03:31:10;;;;;;;;;;;9.30;99.90;;;;;;5094637;28;19927;-69
2022/04/06 03:33:35;;;;;;;;;;;9.40;99.90;;;;;;5094622;28;19998;-70
2022/04/06 03:36:01;;;;;;;;;;;9.40;99.90;;;;;;5093223;28;19999;-69
2022/04/06 03:38:27;;;;;;;;;;;9.40;99.90;;;;;;5094162;28;19923;-68
2022/04/06 03:40:52;;;;;;;;;;;9.40;99.90;;;;;;5094513;28;20367;-69
2022/04/06 03:43:18;;;;;;;;;;;9.30;99.90;;;;;;5094620;28;20334;-70
2022/04/06 03:45:43;;;;;;;;;;;9.30;99.90;;;;;;5094417;28;19927;-69
2022/04/06 03:48:09;;;;;;;;;;;9.40;99.90;;;;;;5092766;28;19920;-69
2022/04/06 03:50:34;;;;;;;;;;;9.40;99.90;;;;;;5094061;28;19915;-69
2022/04/06 03:53:00;;;;;;;;;;;9.40;99.90;;;;;;5076308;28;20601;-69
2022/04/06 03:55:26;;;;;;;;;;;9.40;99.90;;;;;;5094408;28;19930;-69
2022/04/06 03:57:51;;;;;;;;;;;9.30;99.90;;;;;;5093827;28;19966;-69
2022/04/06 04:00:17;;;;;;;;;;;9.40;99.90;;;;;;5093944;28;19916;-68
2022/04/06 04:02:43;;;;;;;;;;;9.40;99.90;;;;;;5092909;28;19923;-69
2022/04/06 04:05:09;;;;;;;;;;;9.40;99.90;;;;;;5094051;28;20364;-69
2022/04/06 04:07:37;;;;;;;;;;;9.40;99.90;;;;;;5093978;28;19970;-70
2022/04/06 04:10:09;;;;;;;;;;;9.40;99.90;;;;;;5093682;28;19923;-68
2022/04/06 04:12:35;;;;;;;;;;;9.40;99.90;;;;;;5093981;28;19958;-68
2022/04/06 04:15:01;;;;;;;;;;;9.40;99.90;;;;;;5093809;28;20372;-69
2022/04/06 04:17:26;;;;;;;;;;;9.40;99.90;;;;;;5093866;28;19916;-68
2022/04/06 04:19:52;;;;;;;;;;;9.40;99.90;;;;;;5091943;28;20004;-68
2022/04/06 04:22:17;;;;;;;;;;;9.40;99.90;;;;;;5093178;28;20006;-69
2022/04/06 04:24:43;;;;;;;;;;;9.40;99.90;;;;;;5091903;28;20053;-69
2022/04/06 04:27:08;;;;;;;;;;;9.40;99.90;;;;;;5093856;28;19920;-69
2022/04/06 04:29:34;;;;;;;;;;;9.40;99.90;;;;;;5093376;28;19994;-69
2022/04/06 04:31:59;;;;;;;;;;;9.40;99.90;;;;;;5093435;28;19920;-69
2022/04/06 04:34:25;;;;;;;;;;;9.40;99.90;;;;;;5093416;28;19926;-71
2022/04/06 04:36:50;;;;;;;;;;;9.40;99.90;;;;;;5093420;28;20311;-69
2022/04/06 04:39:16;;;;;;;;;;;9.40;99.90;;;;;;5091724;28;19916;-68
2022/04/06 04:41:42;;;;;;;;;;;9.40;99.90;;;;;;5092995;28;20336;-68
2022/04/06 04:44:07;;;;;;;;;;;9.40;99.90;;;;;;5093365;28;19916;-70
2022/04/06 04:46:32;;;;;;;;;;;9.40;99.90;;;;;;5093192;28;20341;-68
2022/04/06 04:48:58;;;;;;;;;;;9.40;99.90;;;;;;5092969;28;19999;-69
2022/04/06 04:51:23;;;;;;;;;;;9.40;99.90;;;;;;5092693;28;19927;-69
2022/04/06 04:53:49;;;;;;;;;;;9.30;99.90;;;;;;5093221;28;19920;-68
2022/04/06 04:56:16;;;;;;;;;;;9.40;99.90;;;;;;5092713;28;19924;-68
2022/04/06 04:58:41;;;;;;;;;;;9.30;99.90;;;;;;5092400;28;19923;-69
2022/04/06 05:01:08;;;;;;;;;;;9.30;99.90;;;;;;5092453;28;19916;-68
2022/04/06 05:03:33;;;;;;;;;;;9.40;99.90;;;;;;5092781;28;20281;-68
2022/04/06 05:05:59;;;;;;;;;;;9.40;99.90;;;;;;5090754;28;19927;-68
2022/04/06 05:08:24;;;;;;;;;;;9.30;99.90;;;;;;5090013;28;19923;-72
2022/04/06 05:10:50;;;;;;;;;;;9.30;99.90;;;;;;5092509;28;19971;-69
2022/04/06 05:13:17;;;;;;;;;;;9.30;99.90;;;;;;5092317;28;20010;-68
2022/04/06 05:15:46;;;;;;;;;;;9.30;99.90;;;;;;5091409;28;19927;-68
2022/04/06 05:18:12;;;;;;;;;;;9.30;99.90;;;;;;5091365;28;20372;-70
2022/04/06 05:20:38;;;;;;;;;;;9.30;99.90;;;;;;5091855;28;19923;-68
2022/04/06 05:23:03;;;;;;;;;;;9.30;99.90;;;;;;5092762;28;19916;-69
2022/04/06 05:25:29;;;;;;;;;;;9.30;99.90;;;;;;5092677;28;19972;-69
2022/04/06 05:27:55;;;;;;;;;;;9.20;99.90;;;;;;5092549;28;20298;-68
2022/04/06 05:30:22;;;;;;;;;;;9.20;99.90;;;;;;5092029;28;19920;-69
2022/04/06 05:32:49;;;;;;;;;;;9.20;99.90;;;;;;5092396;28;19963;-68
2022/04/06 05:35:14;;;;;;;;;;;9.30;99.90;;;;;;5092161;28;20422;-70
2022/04/06 05:37:41;;;;;;;;;;;9.30;99.90;;;;;;5092299;28;19993;-68
2022/04/06 05:40:08;;;;;;;;;;;9.20;99.90;;;;;;5091930;28;19923;-68
2022/04/06 05:42:33;;;;;;;;;;;9.20;99.90;;;;;;5092209;28;19919;-69
2022/04/06 05:44:59;;;;;;;;;;;9.30;99.90;;;;;;5092212;28;19973;-69
2022/04/06 05:47:24;;;;;;;;;;;9.30;99.90;;;;;;5092065;28;19920;-68
2022/04/06 05:49:50;;;;;;;;;;;9.30;99.90;;;;;;5091761;28;19946;-69
2022/04/06 05:52:15;;;;;;;;;;;9.30;99.90;;;;;;5092047;28;20277;-68
2022/04/06 05:54:41;;;;;;;;;;;9.30;99.90;;;;;;5074032;28;19922;-70
2022/04/06 05:57:06;;;;;;;;;;;9.30;99.90;;;;;;5091989;28;19916;-69
2022/04/06 05:59:32;;;;;;;;;;;9.30;99.90;;;;;;5091648;28;20372;-69
2022/04/06 06:01:57;;;;;;;;;;;9.30;99.90;;;;;;5091742;28;19962;-69
2022/04/06 06:04:22;;;;;;;;;;;9.30;99.90;;;;;;5091807;28;19919;-68
2022/04/06 06:06:48;;;;;;;;;;;9.30;99.90;;;;;;5092044;28;20160;-68
2022/04/06 06:09:14;;;;;;;;;;;9.30;99.90;;;;;;5091505;28;19923;-68
2022/04/06 06:11:39;;;;;;;;;;;9.30;99.90;;;;;;5091767;28;19920;-69
2022/04/06 06:14:05;;;;;;;;;;;9.30;99.90;;;;;;5091796;28;20014;-68
2022/04/06 06:16:31;;;;;;;;;;;9.30;99.90;;;;;;5091739;28;19924;-68
2022/04/06 06:18:56;;;;;;;;;;;9.30;99.90;;;;;;5096985;28;19927;-67
2022/04/06 06:21:22;;;;;;;;;;;9.30;99.90;;;;;;5091984;28;19916;-68
2022/04/06 06:23:47;;;;;;;;;;;9.30;99.90;;;;;;5091944;28;19923;-68
2022/04/06 06:26:13;;;;;;;;;;;9.30;99.90;;;;;;5091974;28;20407;-68
2022/04/06 06:28:39;;;;;;;;;;;9.30;99.90;;;;;;5090406;28;19919;-68
2022/04/06 06:31:05;;;;;;;;;;;9.30;99.90;;;;;;5089598;28;19961;-68
2022/04/06 06:33:30;;;;;;;;;;;9.30;99.90;;;;;;5091458;28;19920;-68
2022/04/06 06:35:56;;;;;;;;;;;9.30;99.90;;;;;;5090689;28;19920;-67
2022/04/06 06:38:21;;;;;;;;;;;9.30;99.90;;;;;;5131259;28;19972;-68
2022/04/06 06:40:48;;;;;;;;;;;9.30;99.90;;;;;;5131863;27;19922;-67
2022/04/06 06:43:14;;;;;;;;;;;9.30;99.90;;;;;;5131795;27;19915;-68
2022/04/06 06:45:39;;;;;;;;;;;9.30;99.90;;;;;;5131884;27;19923;-68
2022/04/06 06:48:05;;;;;;;;;;;9.30;99.90;;;;;;5132019;27;19919;-67
2022/04/06 06:50:31;;;;;;;;;;;9.30;99.90;;;;;;5131560;27;19923;-69
2022/04/06 06:52:56;;;;;;;;;;;9.30;99.90;;;;;;5132125;27;20010;-68
2022/04/06 06:55:22;;;;;;;;;;;9.30;99.90;;;;;;5130865;28;19920;-68
2022/04/06 06:57:48;;;;;;;;;;;9.30;99.90;;;;;;5132099;27;19936;-68
2022/04/06 07:00:15;;;;;;;;;;;9.30;99.90;;;;;;5131848;27;19922;-67
2022/04/06 07:02:40;;;;;;;;;;;9.30;99.90;;;;;;5131064;28;20649;-68
2022/04/06 07:05:06;;;;;;;;;;;9.30;99.90;;;;;;5100148;27;19919;-67
2022/04/06 07:07:32;;;;;;;;;;;9.30;99.90;;;;;;5100965;28;20386;-68
2022/04/06 07:09:59;;;;;;;;;;;9.30;99.90;;;;;;5106680;28;19922;-68
2022/04/06 07:12:24;;;;;;;;;;;9.20;99.90;;;;;;5110210;28;20284;-70
2022/04/06 07:14:50;;;;;;;;;;;9.40;99.90;;;;;;5090012;28;19977;-69
2022/04/06 07:17:16;;;;;;;;;;;9.30;99.90;;;;;;5102701;28;20375;-70
2022/04/06 07:19:42;;;;;;;;;;;9.30;99.90;;;;;;5111289;28;19923;-70
2022/04/06 07:22:08;;;;;;;;;;;9.30;99.90;;;;;;5111375;28;20375;-69
2022/04/06 07:24:33;;;;;;;;;;;9.30;99.90;;;;;;5115219;28;19922;-70
2022/04/06 07:26:59;;;;;;;;;;;9.30;99.90;;;;;;5115440;28;20356;-70
2022/04/06 07:29:24;;;;;;;;;;;9.30;99.90;;;;;;5114839;28;19916;-69
2022/04/06 07:31:50;;;;;;;;;;;9.30;99.90;;;;;;5115071;28;20006;-70
2022/04/06 07:34:15;;;;;;;;;;;9.30;99.90;;;;;;5115278;28;19931;-70
2022/04/06 07:36:41;;;;;;;;;;;9.30;99.90;;;;;;5113728;28;20434;-70
2022/04/06 07:39:06;;;;;;;;;;;9.30;99.90;;;;;;5113303;28;20010;-70
2022/04/06 07:41:32;;;;;;;;;;;9.30;99.90;;;;;;5114773;28;20467;-70
2022/04/06 07:43:57;;;;;;;;;;;9.40;99.90;;;;;;5115054;28;19916;-70
2022/04/06 07:46:23;;;;;;;;;;;9.40;99.90;;;;;;5114825;28;19946;-69
2022/04/06 07:48:49;;;;;;;;;;;9.40;99.90;;;;;;5096485;28;19919;-70
2022/04/06 07:51:14;;;;;;;;;;;9.40;99.90;;;;;;5114656;28;20435;-70
2022/04/06 07:53:40;;;;;;;;;;;9.40;99.90;;;;;;5114633;28;20049;-69
2022/04/06 07:56:06;;;;;;;;;;;9.30;99.90;;;;;;5114791;28;20018;-67
2022/04/06 07:58:32;;;;;;;;;;;9.30;99.90;;;;;;5112949;28;19916;-71
2022/04/06 08:00:58;;;;;;;;;;;9.30;99.90;;;;;;5113550;28;19916;-70
2022/04/06 08:03:23;;;;;;;;;;;9.30;99.90;;;;;;5114669;28;19954;-68
2022/04/06 08:05:50;;;;;;;;;;;9.40;99.90;;;;;;5114445;28;19935;-69
2022/04/06 08:08:15;;;;;;;;;;;9.40;99.90;;;;;;5113012;28;19919;-69
2022/04/06 08:10:41;;;;;;;;;;;9.30;99.90;;;;;;5114059;28;19915;-70
2022/04/06 08:13:06;;;;;;;;;;;9.30;99.90;;;;;;5114342;27;19922;-70
2022/04/06 08:15:32;;;;;;;;;;;9.40;99.90;;;;;;5114152;28;19965;-70
2022/04/06 08:17:57;;;;;;;;;;;9.30;99.90;;;;;;5114380;28;19916;-68
2022/04/06 08:20:23;;;;;;;;;;;9.40;99.90;;;;;;5113905;27;20431;-69
2022/04/06 08:22:50;;;;;;;;;;;9.50;99.90;;;;;;5114019;28;19998;-69
2022/04/06 08:25:16;;;;;;;;;;;9.40;99.90;;;;;;5113758;28;19920;-69
2022/04/06 08:27:42;;;;;;;;;;;9.40;99.90;;;;;;5113955;28;20345;-69
2022/04/06 08:30:09;;;;;;;;;;;9.50;99.90;;;;;;5113724;28;19962;-69
2022/04/06 08:32:34;;;;;;;;;;;9.50;99.90;;;;;;5112787;28;20294;-68
2022/04/06 08:35:00;;;;;;;;;;;9.50;99.90;;;;;;5112456;28;19924;-68
2022/04/06 08:37:35;;;;;;;;;;;9.50;99.90;;;;;;5113542;28;19919;-70
2022/04/06 08:40:00;;;;;;;;;;;9.50;99.90;;;;;;5113464;28;20375;-70
2022/04/06 08:42:32;;;;;;;;;;;9.60;99.90;;;;;;5113708;28;19969;-68
2022/04/06 08:44:59;;;;;;;;;;;9.60;99.90;;;;;;5113488;28;19916;-67
2022/04/06 08:47:25;;;;;;;;;;;9.60;99.90;;;;;;5113446;28;20352;-67
2022/04/06 08:49:51;;;;;;;;;;;9.70;99.90;;;;;;5113082;28;20007;-68
2022/04/06 08:52:17;;;;;;;;;;;9.70;99.90;;;;;;5115782;27;19926;-68
2022/04/06 08:54:43;;;;;;;;;;;9.70;99.90;;;;;;5127743;27;19915;-68
2022/04/06 08:57:09;;;;;;;;;;;9.70;99.90;;;;;;5134006;27;19926;-68
2022/04/06 08:59:35;;;;;;;;;;;9.70;99.90;;;;;;5133705;27;20006;-69
2022/04/06 09:02:00;;;;;;;;;;;9.70;99.90;;;;;;5132260;27;19980;-68
2022/04/06 09:04:29;;;;;;;;;;;9.70;99.90;;;;;;5133821;27;19919;-68
2022/04/06 09:06:54;;;;;;;;;;;9.70;99.90;;;;;;5131627;27;19922;-67
2022/04/06 09:09:24;;;;;;;;;;;9.70;99.90;;;;;;5095078;28;19920;-71
2022/04/06 09:11:50;;;;;;;;;;;9.70;99.90;;;;;;5092600;28;19916;-69
2022/04/06 09:14:15;;;;;;;;;;;9.70;99.90;;;;;;5092501;28;20295;-71
2022/04/06 09:16:41;;;;;;;;;;;10.10;99.90;;;;;;5094891;28;20026;-68
2022/04/06 09:19:10;;;;;;;;;;;9.90;99.90;;;;;;5098872;28;19916;-67
2022/04/06 09:21:45;;;;;;;;;;;9.80;99.90;;;;;;5092390;28;20295;-67
2022/04/06 09:24:15;;;;;;;;;;;9.70;99.90;;;;;;5092398;28;20410;-71
2022/04/06 09:26:40;;;;;;;;;;;9.80;99.90;;;;;;5092526;28;19955;-68
2022/04/06 09:29:06;;;;;;;;;;;9.70;99.90;;;;;;5092141;28;19978;-69
2022/04/06 09:31:39;;;;;;;;;;;9.70;99.90;;;;;;5091402;28;20348;-69
2022/04/06 09:34:04;;;;;;;;;;;9.70;99.90;;;;;;5092412;28;19920;-70
2022/04/06 09:36:31;;;;;;;;;;;9.70;99.90;;;;;;5091450;28;19924;-70
2022/04/06 09:38:56;;;;;;;;;;;9.70;99.90;;;;;;5091810;28;20380;-70
2022/04/06 09:41:22;;;;;;;;;;;9.80;99.90;;;;;;5092490;28;19916;-69
2022/04/06 09:43:48;;;;;;;;;;;9.80;99.90;;;;;;5092227;28;19916;-69
2022/04/06 09:49:03;;;;;;;;;;;9.80;99.90;;;;;;5092440;28;19915;-69
2022/04/06 09:51:29;;;;;;;;;;;9.80;99.90;;;;;;5092474;28;19920;-70
2022/04/06 09:53:54;;;;;;;;;;;9.80;99.90;;;;;;5092199;28;20017;-69
2022/04/06 09:56:20;;;;;;;;;;;9.80;99.90;;;;;;5092342;28;19924;-70
2022/04/06 09:58:47;;;;;;;;;;;9.90;99.90;;;;;;5074200;28;19980;-71
2022/04/06 10:01:13;;;;;;;;;;;9.80;99.90;;;;;;5093500;28;20287;-69
2022/04/06 10:03:40;;;;;;;;;;;9.80;99.90;;;;;;5093185;28;19920;-71
2022/04/06 10:06:06;;;;;;;;;;;9.90;99.90;;;;;;5093483;28;19927;-70
2022/04/06 10:08:32;;;;;;;;;;;9.90;99.90;;;;;;5091883;28;19916;-71
2022/04/06 10:10:59;;;;;;;;;;;9.90;99.90;;;;;;5093429;28;20269;-70
2022/04/06 10:13:25;;;;;;;;;;;9.90;99.90;;;;;;5093184;28;19923;-71
2022/04/06 10:15:51;;;;;;;;;;;10.00;99.90;;;;;;5093512;28;19932;-73
2022/04/06 10:18:20;;;;;;;;;;;10.00;99.90;;;;;;5092207;28;20033;-72
2022/04/06 10:20:55;;;;;;;;;;;10.00;99.90;;;;;;5092768;28;20012;-69
2022/04/06 10:23:31;;;;;;;;;;;10.00;99.90;;;;;;5093393;28;19940;-69
2022/04/06 10:26:10;;;;;;;;;;;10.00;99.90;;;;;;5090575;28;19939;-70
2022/04/06 10:28:38;;;;;;;;;;;10.00;99.90;;;;;;5073289;28;20455;-71
2022/04/06 10:31:12;;;;;;;;;;;10.00;99.90;;;;;;5090581;28;19975;-71
2022/04/06 10:33:38;;;;;;;;;;;10.00;99.90;;;;;;5092115;28;19916;-71
2022/04/06 10:36:17;;;;;;;;;;;10.00;99.90;;;;;;5091895;28;19966;-69
2022/04/06 10:39:10;;;;;;;;;;;10.10;99.90;;;;;;5091297;28;19923;-70
2022/04/06 10:41:41;;;;;;;;;;;10.20;99.90;;;;;;5091591;28;20311;-71
2022/04/06 10:44:29;;;;;;;;;;;10.20;99.90;;;;;;5091458;28;20376;-70
2022/04/06 10:47:05;;;;;;;;;;;10.10;99.90;;;;;;5091178;28;19916;-72
2022/04/06 10:49:30;;;;;;;;;;;10.20;99.90;;;;;;5089866;28;19915;-72
2022/04/06 10:51:58;;;;;;;;;;;10.20;99.90;;;;;;5090168;28;20011;-72
2022/04/06 10:54:27;;;;;;;;;;;10.10;99.90;;;;;;5090969;28;20543;-72
2022/04/06 10:56:54;;;;;;;;;;;10.20;99.90;;;;;;5091439;28;19967;-72
2022/04/06 10:59:20;;;;;;;;;;;10.20;99.90;;;;;;5094917;28;19973;-72
2022/04/06 11:01:46;;;;;;;;;;;10.10;99.90;;;;;;5095299;28;19924;-72
2022/04/06 11:04:16;;;;;;;;;;;10.10;99.90;;;;;;5093969;28;19958;-71
2022/04/06 11:06:41;;;;;;;;;;;10.00;99.90;;;;;;5093589;28;19965;-71
2022/04/06 11:12:15;;;;;;;;;;;10.10;99.90;;;;;;5094820;28;19920;-68
2022/04/06 11:14:42;;;;;;;;;;;10.10;99.90;;;;;;5093682;28;19920;-69
2022/04/06 11:17:26;;;;;;;;;;;10.10;99.90;;;;;;5097354;28;19916;-69
2022/04/06 11:19:52;;;;;;;;;;;10.10;99.90;;;;;;5104485;28;20295;-69
2022/04/06 11:22:20;;;;;;;;;;;10.10;99.90;;;;;;5094881;28;19916;-69
2022/04/06 11:24:47;;;;;;;;;;;10.10;99.90;;;;;;5095076;28;19920;-69
2022/04/06 11:27:25;;;;;;;;;;;10.10;99.90;;;;;;5094881;28;19922;-69
2022/04/06 11:29:57;;;;;;;;;;;10.10;99.90;;;;;;5094804;28;19923;-69
2022/04/06 11:32:22;;;;;;;;;;;10.00;99.90;;;;;;5094690;28;19923;-69
2022/04/06 11:34:48;;;;;;;;;;;10.00;99.90;;;;;;5096245;28;19920;-69
2022/04/06 11:37:13;;;;;;;;;;;10.10;99.90;;;;;;5096105;28;19916;-69
2022/04/06 11:39:39;;;;;;;;;;;10.00;99.90;;;;;;5094164;28;20260;-69
2022/04/06 11:42:05;;;;;;;;;;;10.00;99.90;;;;;;5094591;28;19931;-69
2022/04/06 11:44:31;;;;;;;;;;;10.00;99.90;;;;;;5094469;28;19920;-68
2022/04/06 11:46:56;;;;;;;;;;;10.00;99.90;;;;;;5094475;28;19919;-72
2022/04/06 11:49:27;;;;;;;;;;;10.10;99.90;;;;;;5092970;28;19916;-70
2022/04/06 11:51:54;;;;;;;;;;;10.10;99.90;;;;;;5092895;28;19916;-73
2022/04/06 11:54:20;;;;;;;;;;;10.20;99.90;;;;;;5093366;28;19923;-71
2022/04/06 11:56:52;;;;;;;;;;;10.30;99.90;;;;;;5094496;28;19928;-73
2022/04/06 11:59:19;;;;;;;;;;;10.30;99.90;;;;;;5093748;28;19952;-72
2022/04/06 12:01:46;;;;;;;;;;;10.30;99.90;;;;;;5094092;28;20287;-71
2022/04/06 12:04:12;;;;;;;;;;;10.30;99.90;;;;;;5093347;28;19927;-73
2022/04/06 12:06:37;;;;;;;;;;;10.40;99.90;;;;;;5092696;28;20403;-73
2022/04/06 12:09:03;;;;;;;;;;;10.40;99.90;;;;;;5092225;28;19916;-73
2022/04/06 12:11:28;;;;;;;;;;;10.40;99.90;;;;;;5094104;28;20268;-73
2022/04/06 12:13:56;;;;;;;;;;;10.50;99.90;;;;;;5092912;28;20394;-74
2022/04/06 12:16:23;;;;;;;;;;;10.50;99.90;;;;;;5092401;28;19923;-71
2022/04/06 12:18:50;;;;;;;;;;;10.70;99.90;;;;;;5092416;28;20314;-72
2022/04/06 12:21:19;;;;;;;;;;;10.60;99.90;;;;;;5092242;28;19927;-72
2022/04/06 12:23:45;;;;;;;;;;;10.60;99.90;;;;;;5092332;28;19927;-72
2022/04/06 12:26:11;;;;;;;;;;;10.70;99.90;;;;;;5093849;28;19919;-72
2022/04/06 12:28:36;;;;;;;;;;;10.70;99.90;;;;;;5093428;28;19939;-72
2022/04/06 12:31:03;;;;;;;;;;;10.70;99.90;;;;;;5092211;28;20010;-72
2022/04/06 12:33:40;;;;;;;;;;;10.70;99.90;;;;;;5093456;28;19920;-72
2022/04/06 12:36:10;;;;;;;;;;;10.70;99.90;;;;;;5093270;28;19924;-72
2022/04/06 12:38:37;;;;;;;;;;;10.70;99.90;;;;;;5092422;28;19935;-72
2022/04/06 12:41:07;;;;;;;;;;;10.60;99.90;;;;;;5092773;28;19916;-72
2022/04/06 12:43:35;;;;;;;;;;;10.60;99.90;;;;;;5093484;28;19995;-71
2022/04/06 12:46:01;;;;;;;;;;;10.60;99.90;;;;;;5098606;28;19919;-72
2022/04/06 12:48:28;;;;;;;;;;;10.70;99.90;;;;;;5101114;28;19916;-72
2022/04/06 12:50:53;;;;;;;;;;;10.60;99.90;;;;;;5101514;28;20439;-72
2022/04/06 12:53:20;;;;;;;;;;;10.60;99.90;;;;;;5093280;28;19920;-71
2022/04/06 12:55:46;;;;;;;;;;;10.60;99.90;;;;;;5093034;28;19981;-72
2022/04/06 12:58:15;;;;;;;;;;;10.60;99.90;;;;;;5092925;28;19915;-72
2022/04/06 13:00:40;;;;;;;;;;;10.60;99.90;;;;;;5104784;28;19930;-73
2022/04/06 13:03:07;;;;;;;;;;;10.60;99.90;;;;;;5112018;28;20014;-73
2022/04/06 13:05:32;;;;;;;;;;;10.60;99.90;;;;;;5112929;28;19945;-73
2022/04/06 13:07:58;;;;;;;;;;;10.60;99.90;;;;;;5113059;28;20010;-73
2022/04/06 13:10:28;;;;;;;;;;;10.60;99.90;;;;;;5112606;28;19916;-72
2022/04/06 13:12:53;;;;;;;;;;;10.60;99.90;;;;;;5112595;28;19915;-73
2022/04/06 13:15:19;;;;;;;;;;;10.50;99.90;;;;;;5109783;28;19931;-72
2022/04/06 13:17:45;;;;;;;;;;;10.50;99.90;;;;;;5110967;28;20553;-72
2022/04/06 13:20:12;;;;;;;;;;;10.50;99.90;;;;;;5110048;28;19977;-73
2022/04/06 13:22:39;;;;;;;;;;;10.50;99.90;;;;;;5110770;28;19916;-73
2022/04/06 13:25:05;;;;;;;;;;;10.50;99.90;;;;;;5112116;28;19915;-73
2022/04/06 13:27:30;;;;;;;;;;;10.40;99.90;;;;;;5111576;28;20446;-73
2022/04/06 13:29:56;;;;;;;;;;;10.40;99.90;;;;;;5111065;28;19998;-73
2022/04/06 13:32:21;;;;;;;;;;;10.30;99.90;;;;;;5111017;28;19915;-73
2022/04/06 13:34:47;;;;;;;;;;;10.40;99.90;;;;;;5111133;28;19915;-73
2022/04/06 13:37:14;;;;;;;;;;;10.40;99.90;;;;;;5111004;28;20371;-72
2022/04/06 13:39:39;;;;;;;;;;;10.30;99.90;;;;;;5110826;28;19915;-73
2022/04/06 13:42:05;;;;;;;;;;;10.40;99.90;;;;;;5110939;28;20330;-73
2022/04/06 13:44:32;;;;;;;;;;;10.30;99.90;;;;;;5110785;28;19919;-74
2022/04/06 13:46:58;;;;;;;;;;;10.40;99.90;;;;;;5110376;28;19984;-73
2022/04/06 13:49:24;;;;;;;;;;;10.30;99.90;;;;;;5093878;28;20358;-73
2022/04/06 13:51:50;;;;;;;;;;;10.40;99.90;;;;;;5110787;28;19962;-73
2022/04/06 13:54:19;;;;;;;;;;;10.30;99.90;;;;;;5110866;28;20019;-75
2022/04/06 13:56:45;;;;;;;;;;;10.40;99.90;;;;;;5110653;28;20260;-72
2022/04/06 13:59:11;;;;;;;;;;;10.40;99.90;;;;;;5093443;28;19973;-73
2022/04/06 14:01:36;;;;;;;;;;;10.30;99.90;;;;;;5110780;28;20383;-74
2022/04/06 14:04:03;;;;;;;;;;;10.30;99.90;;;;;;5093575;28;19924;-74
2022/04/06 14:06:28;;;;;;;;;;;10.20;99.90;;;;;;5110205;28;19915;-74
2022/04/06 14:08:54;;;;;;;;;;;10.20;99.90;;;;;;5110527;28;19963;-73
2022/04/06 14:11:19;;;;;;;;;;;10.20;99.90;;;;;;5111782;28;19916;-73
2022/04/06 14:13:45;;;;;;;;;;;10.20;99.90;;;;;;5111643;28;19989;-73
2022/04/06 14:16:10;;;;;;;;;;;10.20;99.90;;;;;;5111622;28;19969;-73
2022/04/06 14:18:36;;;;;;;;;;;10.20;99.90;;;;;;5111597;28;19951;-73
2022/04/06 14:21:02;;;;;;;;;;;10.20;99.90;;;;;;5110233;28;19922;-73
2022/04/06 14:23:27;;;;;;;;;;;10.20;99.90;;;;;;5110267;28;19916;-74
2022/04/06 14:25:53;;;;;;;;;;;10.20;99.90;;;;;;5093328;28;19915;-74
2022/04/06 14:28:18;;;;;;;;;;;10.20;99.90;;;;;;5110075;28;19921;-74
2022/04/06 14:30:48;;;;;;;;;;;10.20;99.90;;;;;;5111162;28;19916;-74